sensor_id;sensor_type;location;lat;lon;timestamp;pressure;altitude;pressure_sealevel;temperature;humidity
44309;BME280;30022;55.846;37.340;2023-02-19T00:01:12;47350.94;;;-143.51;100.00
44309;BME280;30022;55.846;37.340;2023-02-19T00:03:50;47404.25;;;-143.51;100.00
44309;BME280;30022;55.846;37.340;2023-02-19T00:06:16;47414.13;;;-143.51;100.00
44309;BME280;30022;55.846;37.340;2023-02-19T00:08:44;47510.91;;;-143.51;100.00
44309;BME280;30022;55.846;37.340;2023-02-19T00:11:12;47544.50;;;-143.51;100.00
44309;BME280;30022;55.846;37.340;2023-02-19T00:13:39;47510.91;;;-143.51;100.00
44309;BME280;30022;55.846;37.340;2023-02-19T00:16:05;47471.41;;;-143.51;100.00
44309;BME280;30022;55.846;37.340;2023-02-19T00:18:31;47542.53;;;-143.51;100.00
44309;BME280;30022;55.846;37.340;2023-02-19T00:20:57;47574.13;;;-143.51;100.00
44309;BME280;30022;55.846;37.340;2023-02-19T00:23:22;47528.69;;;-143.51;100.00
44309;BME280;30022;55.846;37.340;2023-02-19T00:25:48;47552.41;;;-143.51;100.00
44309;BME280;30022;55.846;37.340;2023-02-19T00:28:14;47526.72;;;-143.51;100.00
44309;BME280;30022;55.846;37.340;2023-02-19T00:30:39;47621.53;;;-143.51;100.00
44309;BME280;30022;55.846;37.340;2023-02-19T00:33:05;47585.97;;;-143.51;100.00
44309;BME280;30022;55.846;37.340;2023-02-19T00:35:33;47568.22;;;-143.51;100.00
44309;BME280;30022;55.846;37.340;2023-02-19T00:37:58;47574.13;;;-143.51;100.00
44309;BME280;30022;55.846;37.340;2023-02-19T00:40:24;47505.00;;;-143.51;100.00
44309;BME280;30022;55.846;37.340;2023-02-19T00:42:52;47356.84;;;-143.51;100.00
44309;BME280;30022;55.846;37.340;2023-02-19T00:45:17;47410.19;;;-143.51;100.00
44309;BME280;30022;55.846;37.340;2023-02-19T00:47:43;47449.69;;;-143.51;100.00
44309;BME280;30022;55.846;37.340;2023-02-19T00:50:09;47473.38;;;-143.51;100.00
44309;BME280;30022;55.846;37.340;2023-02-19T00:52:34;47499.06;;;-143.51;100.00
44309;BME280;30022;55.846;37.340;2023-02-19T00:55:00;47497.09;;;-143.51;100.00
44309;BME280;30022;55.846;37.340;2023-02-19T00:57:26;47538.56;;;-143.51;100.00
44309;BME280;30022;55.846;37.340;2023-02-19T00:59:52;47475.38;;;-143.51;100.00
44309;BME280;30022;55.846;37.340;2023-02-19T01:02:17;47489.19;;;-143.51;100.00
44309;BME280;30022;55.846;37.340;2023-02-19T01:04:43;47483.28;;;-143.51;100.00
44309;BME280;30022;55.846;37.340;2023-02-19T01:07:09;47412.16;;;-143.51;100.00
44309;BME280;30022;55.846;37.340;2023-02-19T01:09:35;47425.97;;;-143.51;100.00
44309;BME280;30022;55.846;37.340;2023-02-19T01:12:04;47506.97;;;-143.51;100.00
44309;BME280;30022;55.846;37.340;2023-02-19T01:14:30;47558.31;;;-143.51;100.00
44309;BME280;30022;55.846;37.340;2023-02-19T01:16:55;47597.84;;;-143.51;100.00
44309;BME280;30022;55.846;37.340;2023-02-19T01:19:21;47582.03;;;-143.51;100.00
44309;BME280;30022;55.846;37.340;2023-02-19T01:21:47;47505.00;;;-143.51;100.00
44309;BME280;30022;55.846;37.340;2023-02-19T01:24:12;47516.84;;;-143.51;100.00
44309;BME280;30022;55.846;37.340;2023-02-19T01:26:38;47499.06;;;-143.51;100.00
44309;BME280;30022;55.846;37.340;2023-02-19T01:29:04;47461.53;;;-143.51;100.00
44309;BME280;30022;55.846;37.340;2023-02-19T01:31:30;47425.97;;;-143.51;100.00
44309;BME280;30022;55.846;37.340;2023-02-19T01:33:57;47473.38;;;-143.51;100.00
44309;BME280;30022;55.846;37.340;2023-02-19T01:36:23;47416.09;;;-143.51;100.00
44309;BME280;30022;55.846;37.340;2023-02-19T01:38:49;47424.00;;;-143.51;100.00
44309;BME280;30022;55.846;37.340;2023-02-19T01:41:17;47475.38;;;-143.51;100.00
44309;BME280;30022;55.846;37.340;2023-02-19T01:46:24;47514.88;;;-143.51;100.00
44309;BME280;30022;55.846;37.340;2023-02-19T01:48:49;47542.53;;;-143.51;100.00
44309;BME280;30022;55.846;37.340;2023-02-19T01:51:16;47589.94;;;-143.51;100.00
44309;BME280;30022;55.846;37.340;2023-02-19T01:53:44;47578.09;;;-143.51;100.00
44309;BME280;30022;55.846;37.340;2023-02-19T01:56:10;47520.78;;;-143.51;100.00
44309;BME280;30022;55.846;37.340;2023-02-19T01:58:37;47386.47;;;-143.51;100.00
44309;BME280;30022;55.846;37.340;2023-02-19T02:01:05;47445.75;;;-143.51;100.00
44309;BME280;30022;55.846;37.340;2023-02-19T02:03:31;47475.38;;;-143.51;100.00
44309;BME280;30022;55.846;37.340;2023-02-19T02:05:58;47505.00;;;-143.51;100.00
44309;BME280;30022;55.846;37.340;2023-02-19T02:08:26;47566.22;;;-143.51;100.00
44309;BME280;30022;55.846;37.340;2023-02-19T02:11:10;47617.59;;;-143.51;100.00
44309;BME280;30022;55.846;37.340;2023-02-19T02:13:36;47611.66;;;-143.51;100.00
44309;BME280;30022;55.846;37.340;2023-02-19T02:16:24;47655.13;;;-143.51;100.00
44309;BME280;30022;55.846;37.340;2023-02-19T02:18:53;47680.81;;;-143.51;100.00
44309;BME280;30022;55.846;37.340;2023-02-19T02:24:03;47751.91;;;-143.51;100.00
44309;BME280;30022;55.846;37.340;2023-02-19T02:31:42;47641.28;;;-143.51;100.00
44309;BME280;30022;55.846;37.340;2023-02-19T02:34:11;47696.59;;;-143.51;100.00
44309;BME280;30022;55.846;37.340;2023-02-19T02:36:39;47629.44;;;-143.51;100.00
44309;BME280;30022;55.846;37.340;2023-02-19T02:39:08;47617.59;;;-143.51;100.00
44309;BME280;30022;55.846;37.340;2023-02-19T02:41:41;47595.84;;;-143.51;100.00
44309;BME280;30022;55.846;37.340;2023-02-19T02:44:06;47659.06;;;-143.51;100.00
44309;BME280;30022;55.846;37.340;2023-02-19T02:46:33;47556.34;;;-143.51;100.00
44309;BME280;30022;55.846;37.340;2023-02-19T02:49:04;47524.75;;;-143.51;100.00
44309;BME280;30022;55.846;37.340;2023-02-19T02:51:33;47595.84;;;-143.51;100.00
44309;BME280;30022;55.846;37.340;2023-02-19T02:56:51;47611.66;;;-143.51;100.00
44309;BME280;30022;55.846;37.340;2023-02-19T02:59:18;47607.72;;;-143.51;100.00
44309;BME280;30022;55.846;37.340;2023-02-19T03:05:14;47455.63;;;-143.51;100.00
44309;BME280;30022;55.846;37.340;2023-02-19T03:07:41;47459.56;;;-143.51;100.00
44309;BME280;30022;55.846;37.340;2023-02-19T03:10:09;47424.00;;;-143.51;100.00
44309;BME280;30022;55.846;37.340;2023-02-19T03:12:36;47435.88;;;-143.51;100.00
44309;BME280;30022;55.846;37.340;2023-02-19T03:15:22;47524.75;;;-143.51;100.00
44309;BME280;30022;55.846;37.340;2023-02-19T03:18:07;47546.47;;;-143.51;100.00
44309;BME280;30022;55.846;37.340;2023-02-19T03:20:55;47597.84;;;-143.51;100.00
44309;BME280;30022;55.846;37.340;2023-02-19T03:23:22;47619.56;;;-143.51;100.00
44309;BME280;30022;55.846;37.340;2023-02-19T03:26:09;47599.81;;;-143.51;100.00
44309;BME280;30022;55.846;37.340;2023-02-19T03:28:46;47623.50;;;-143.51;100.00
44309;BME280;30022;55.846;37.340;2023-02-19T03:31:31;47666.97;;;-143.51;100.00
44309;BME280;30022;55.846;37.340;2023-02-19T03:34:00;47716.34;;;-143.51;100.00
44309;BME280;30022;55.846;37.340;2023-02-19T03:36:29;47789.44;;;-143.51;100.00
44309;BME280;30022;55.846;37.340;2023-02-19T03:39:07;47767.72;;;-143.51;100.00
44309;BME280;30022;55.846;37.340;2023-02-19T03:44:23;47755.88;;;-143.51;100.00
44309;BME280;30022;55.846;37.340;2023-02-19T03:52:13;47836.84;;;-143.51;100.00
44309;BME280;30022;55.846;37.340;2023-02-19T03:54:55;47799.31;;;-143.51;100.00
44309;BME280;30022;55.846;37.340;2023-02-19T03:57:24;47823.03;;;-143.51;100.00
44309;BME280;30022;55.846;37.340;2023-02-19T03:59:57;47866.50;;;-143.51;100.00
44309;BME280;30022;55.846;37.340;2023-02-19T04:04:53;47746.00;;;-143.51;100.00
44309;BME280;30022;55.846;37.340;2023-02-19T04:07:23;47710.44;;;-143.51;100.00
44309;BME280;30022;55.846;37.340;2023-02-19T04:09:50;47759.81;;;-143.51;100.00
44309;BME280;30022;55.846;37.340;2023-02-19T04:12:20;47819.06;;;-143.51;100.00
44309;BME280;30022;55.846;37.340;2023-02-19T04:17:22;47906.00;;;-143.51;100.00
44309;BME280;30022;55.846;37.340;2023-02-19T04:19:50;47985.03;;;-143.51;100.00
44309;BME280;30022;55.846;37.340;2023-02-19T04:22:17;48004.78;;;-143.51;100.00
44309;BME280;30022;55.846;37.340;2023-02-19T04:24:46;47921.81;;;-143.51;100.00
44309;BME280;30022;55.846;37.340;2023-02-19T04:27:12;47943.53;;;-143.51;100.00
44309;BME280;30022;55.846;37.340;2023-02-19T04:29:38;47975.13;;;-143.51;100.00
44309;BME280;30022;55.846;37.340;2023-02-19T04:32:04;47985.03;;;-143.51;100.00
44309;BME280;30022;55.846;37.340;2023-02-19T04:34:29;47990.94;;;-143.51;100.00
44309;BME280;30022;55.846;37.340;2023-02-19T04:36:55;47977.13;;;-143.51;100.00
44309;BME280;30022;55.846;37.340;2023-02-19T04:39:20;47913.91;;;-143.51;100.00
44309;BME280;30022;55.846;37.340;2023-02-19T04:41:46;47888.22;;;-143.51;100.00
44309;BME280;30022;55.846;37.340;2023-02-19T04:44:12;47941.56;;;-143.51;100.00
44309;BME280;30022;55.846;37.340;2023-02-19T04:46:38;47975.13;;;-143.51;100.00
44309;BME280;30022;55.846;37.340;2023-02-19T04:49:04;47992.91;;;-143.51;100.00
44309;BME280;30022;55.846;37.340;2023-02-19T04:51:30;47973.16;;;-143.51;100.00
44309;BME280;30022;55.846;37.340;2023-02-19T04:53:55;47955.38;;;-143.51;100.00
44309;BME280;30022;55.846;37.340;2023-02-19T04:56:21;47919.81;;;-143.51;100.00
44309;BME280;30022;55.846;37.340;2023-02-19T04:58:47;47866.50;;;-143.51;100.00
44309;BME280;30022;55.846;37.340;2023-02-19T05:01:12;47884.28;;;-143.51;100.00
44309;BME280;30022;55.846;37.340;2023-02-19T05:03:42;47886.25;;;-143.51;100.00
44309;BME280;30022;55.846;37.340;2023-02-19T05:06:13;47882.28;;;-143.51;100.00
44309;BME280;30022;55.846;37.340;2023-02-19T05:08:39;47941.56;;;-143.51;100.00
44309;BME280;30022;55.846;37.340;2023-02-19T05:11:06;48042.31;;;-143.51;100.00
44309;BME280;30022;55.846;37.340;2023-02-19T05:13:34;48008.72;;;-143.51;100.00
44309;BME280;30022;55.846;37.340;2023-02-19T05:16:00;47992.91;;;-143.51;100.00
44309;BME280;30022;55.846;37.340;2023-02-19T05:18:28;48000.81;;;-143.51;100.00
44309;BME280;30022;55.846;37.340;2023-02-19T05:20:54;47971.19;;;-143.51;100.00
44309;BME280;30022;55.846;37.340;2023-02-19T05:23:21;48006.75;;;-143.51;100.00
44309;BME280;30022;55.846;37.340;2023-02-19T05:25:47;48012.69;;;-143.51;100.00
44309;BME280;30022;55.846;37.340;2023-02-19T05:28:12;47988.97;;;-143.51;100.00
44309;BME280;30022;55.846;37.340;2023-02-19T05:30:44;47906.00;;;-143.51;100.00
44309;BME280;30022;55.846;37.340;2023-02-19T05:33:10;47929.69;;;-143.51;100.00
44309;BME280;30022;55.846;37.340;2023-02-19T05:35:41;48044.28;;;-143.51;100.00
44309;BME280;30022;55.846;37.340;2023-02-19T05:38:08;48012.69;;;-143.51;100.00
44309;BME280;30022;55.846;37.340;2023-02-19T05:40:33;48030.47;;;-143.51;100.00
44309;BME280;30022;55.846;37.340;2023-02-19T05:42:59;48079.84;;;-143.51;100.00
44309;BME280;30022;55.846;37.340;2023-02-19T05:45:25;48103.56;;;-143.51;100.00
44309;BME280;30022;55.846;37.340;2023-02-19T05:47:50;48119.34;;;-143.51;100.00
44309;BME280;30022;55.846;37.340;2023-02-19T05:50:16;48158.88;;;-143.51;100.00
44309;BME280;30022;55.846;37.340;2023-02-19T05:52:42;48143.06;;;-143.51;100.00
44309;BME280;30022;55.846;37.340;2023-02-19T05:55:09;48186.53;;;-143.51;100.00
44309;BME280;30022;55.846;37.340;2023-02-19T05:57:41;48237.91;;;-143.51;100.00
44309;BME280;30022;55.846;37.340;2023-02-19T06:00:10;48149.00;;;-143.51;100.00
44309;BME280;30022;55.846;37.340;2023-02-19T06:02:37;47998.84;;;-143.51;100.00
44309;BME280;30022;55.846;37.340;2023-02-19T06:05:03;47983.03;;;-143.51;100.00
44309;BME280;30022;55.846;37.340;2023-02-19T06:07:29;48048.22;;;-143.51;100.00
44309;BME280;30022;55.846;37.340;2023-02-19T06:09:55;47973.16;;;-143.51;100.00
44309;BME280;30022;55.846;37.340;2023-02-19T06:12:20;48071.94;;;-143.51;100.00
44309;BME280;30022;55.846;37.340;2023-02-19T06:14:46;48099.59;;;-143.51;100.00
44309;BME280;30022;55.846;37.340;2023-02-19T06:17:12;48022.56;;;-143.51;100.00
44309;BME280;30022;55.846;37.340;2023-02-19T06:19:37;47941.56;;;-143.51;100.00
44309;BME280;30022;55.846;37.340;2023-02-19T06:22:03;47973.16;;;-143.51;100.00
44309;BME280;30022;55.846;37.340;2023-02-19T06:24:29;48052.19;;;-143.51;100.00
44309;BME280;30022;55.846;37.340;2023-02-19T06:26:57;47985.03;;;-143.51;100.00
44309;BME280;30022;55.846;37.340;2023-02-19T06:29:23;48004.78;;;-143.51;100.00
44309;BME280;30022;55.846;37.340;2023-02-19T06:31:49;47949.47;;;-143.51;100.00
44309;BME280;30022;55.846;37.340;2023-02-19T06:34:14;47979.09;;;-143.51;100.00
44309;BME280;30022;55.846;37.340;2023-02-19T06:36:40;48060.09;;;-143.51;100.00
44309;BME280;30022;55.846;37.340;2023-02-19T06:39:05;48202.34;;;-143.51;100.00
44309;BME280;30022;55.846;37.340;2023-02-19T06:41:31;48066.00;;;-143.51;100.00
44309;BME280;30022;55.846;37.340;2023-02-19T06:44:00;48089.72;;;-143.51;100.00
44309;BME280;30022;55.846;37.340;2023-02-19T06:46:26;48143.06;;;-143.51;100.00
44309;BME280;30022;55.846;37.340;2023-02-19T06:48:51;48048.22;;;-143.51;100.00
44309;BME280;30022;55.846;37.340;2023-02-19T06:51:18;48064.03;;;-143.51;100.00
44309;BME280;30022;55.846;37.340;2023-02-19T06:53:47;48103.56;;;-143.51;100.00
44309;BME280;30022;55.846;37.340;2023-02-19T06:58:53;48058.13;;;-143.51;100.00
44309;BME280;30022;55.846;37.340;2023-02-19T07:01:20;48131.22;;;-143.51;100.00
44309;BME280;30022;55.846;37.340;2023-02-19T07:03:46;48224.06;;;-143.51;100.00
44309;BME280;30022;55.846;37.340;2023-02-19T07:06:11;48257.66;;;-143.51;100.00
44309;BME280;30022;55.846;37.340;2023-02-19T07:08:37;48249.75;;;-143.51;100.00
44309;BME280;30022;55.846;37.340;2023-02-19T07:11:02;48354.47;;;-143.51;100.00
44309;BME280;30022;55.846;37.340;2023-02-19T07:13:28;48352.47;;;-143.51;100.00
44309;BME280;30022;55.846;37.340;2023-02-19T07:16:00;48245.78;;;-143.51;100.00
44309;BME280;30022;55.846;37.340;2023-02-19T07:18:27;48073.91;;;-143.51;100.00
44309;BME280;30022;55.846;37.340;2023-02-19T07:20:52;48050.22;;;-143.51;100.00
44309;BME280;30022;55.846;37.340;2023-02-19T07:23:21;48107.50;;;-143.51;100.00
44309;BME280;30022;55.846;37.340;2023-02-19T07:25:47;48210.22;;;-143.51;100.00
44309;BME280;30022;55.846;37.340;2023-02-19T07:28:13;48275.44;;;-143.51;100.00
44309;BME280;30022;55.846;37.340;2023-02-19T07:30:38;48243.81;;;-143.51;100.00
44309;BME280;30022;55.846;37.340;2023-02-19T07:33:04;48216.16;;;-143.51;100.00
44309;BME280;30022;55.846;37.340;2023-02-19T07:35:29;48350.50;;;-143.51;100.00
44309;BME280;30022;55.846;37.340;2023-02-19T07:37:55;48405.81;;;-143.51;100.00
44309;BME280;30022;55.846;37.340;2023-02-19T07:40:20;48443.38;;;-143.51;100.00
44309;BME280;30022;55.846;37.340;2023-02-19T07:42:46;48218.13;;;-143.51;100.00
44309;BME280;30022;55.846;37.340;2023-02-19T07:45:12;48277.41;;;-143.51;100.00
44309;BME280;30022;55.846;37.340;2023-02-19T07:47:37;48382.13;;;-143.51;100.00
44309;BME280;30022;55.846;37.340;2023-02-19T07:50:03;48395.94;;;-143.51;100.00
44309;BME280;30022;55.846;37.340;2023-02-19T07:52:28;48368.28;;;-143.51;100.00
44309;BME280;30022;55.846;37.340;2023-02-19T07:54:54;48382.13;;;-143.51;100.00
44309;BME280;30022;55.846;37.340;2023-02-19T07:57:19;48413.72;;;-143.51;100.00
44309;BME280;30022;55.846;37.340;2023-02-19T07:59:45;48516.47;;;-143.51;100.00
44309;BME280;30022;55.846;37.340;2023-02-19T08:02:14;48605.38;;;-143.51;100.00
44309;BME280;30022;55.846;37.340;2023-02-19T08:05:04;48514.50;;;-143.51;100.00
44309;BME280;30022;55.846;37.340;2023-02-19T08:07:33;48502.63;;;-143.51;100.00
44309;BME280;30022;55.846;37.340;2023-02-19T08:09:59;48530.31;;;-143.51;100.00
44309;BME280;30022;55.846;37.340;2023-02-19T08:12:44;48399.91;;;-143.51;100.00
44309;BME280;30022;55.846;37.340;2023-02-19T08:15:28;48451.28;;;-143.51;100.00
44309;BME280;30022;55.846;37.340;2023-02-19T08:17:54;48366.31;;;-143.51;100.00
44309;BME280;30022;55.846;37.340;2023-02-19T08:20:19;48536.22;;;-143.51;100.00
44309;BME280;30022;55.846;37.340;2023-02-19T08:22:45;48674.53;;;-143.51;100.00
44309;BME280;30022;55.846;37.340;2023-02-19T08:25:11;48769.38;;;-143.51;100.00
44309;BME280;30022;55.846;37.340;2023-02-19T08:27:36;48731.84;;;-143.51;100.00
44309;BME280;30022;55.846;37.340;2023-02-19T08:30:02;48627.13;;;-143.51;100.00
44309;BME280;30022;55.846;37.340;2023-02-19T08:32:29;48587.59;;;-143.51;100.00
44309;BME280;30022;55.846;37.340;2023-02-19T08:34:54;48747.66;;;-143.51;100.00
44309;BME280;30022;55.846;37.340;2023-02-19T08:37:20;48546.09;;;-143.51;100.00
44309;BME280;30022;55.846;37.340;2023-02-19T08:39:46;48664.66;;;-143.51;100.00
44309;BME280;30022;55.846;37.340;2023-02-19T08:42:12;48721.97;;;-143.51;100.00
44309;BME280;30022;55.846;37.340;2023-02-19T08:44:37;48635.03;;;-143.51;100.00
44309;BME280;30022;55.846;37.340;2023-02-19T08:47:03;48648.84;;;-143.51;100.00
44309;BME280;30022;55.846;37.340;2023-02-19T08:49:32;48664.66;;;-143.51;100.00
44309;BME280;30022;55.846;37.340;2023-02-19T08:52:15;48530.31;;;-143.51;100.00
44309;BME280;30022;55.846;37.340;2023-02-19T08:54:41;48638.97;;;-143.51;100.00
44309;BME280;30022;55.846;37.340;2023-02-19T08:57:06;48718.00;;;-143.51;100.00
44309;BME280;30022;55.846;37.340;2023-02-19T08:59:32;48733.81;;;-143.51;100.00
44309;BME280;30022;55.846;37.340;2023-02-19T09:01:58;48749.63;;;-143.51;100.00
44309;BME280;30022;55.846;37.340;2023-02-19T09:04:27;48621.19;;;-143.51;100.00
44309;BME280;30022;55.846;37.340;2023-02-19T09:06:55;48423.59;;;-143.51;100.00
44309;BME280;30022;55.846;37.340;2023-02-19T09:09:21;48463.13;;;-143.51;100.00
44309;BME280;30022;55.846;37.340;2023-02-19T09:11:47;48589.56;;;-143.51;100.00
44309;BME280;30022;55.846;37.340;2023-02-19T09:14:12;48688.38;;;-143.51;100.00
44309;BME280;30022;55.846;37.340;2023-02-19T09:16:38;48745.66;;;-143.51;100.00
44309;BME280;30022;55.846;37.340;2023-02-19T09:19:03;48826.69;;;-143.51;100.00
44309;BME280;30022;55.846;37.340;2023-02-19T09:21:29;48820.75;;;-143.51;100.00
44309;BME280;30022;55.846;37.340;2023-02-19T09:23:55;48662.69;;;-143.51;100.00
44309;BME280;30022;55.846;37.340;2023-02-19T09:26:20;48528.31;;;-143.51;100.00
44309;BME280;30022;55.846;37.340;2023-02-19T09:28:46;48510.53;;;-143.51;100.00
44309;BME280;30022;55.846;37.340;2023-02-19T09:31:14;48546.09;;;-143.51;100.00
44309;BME280;30022;55.846;37.340;2023-02-19T09:33:41;48745.66;;;-143.51;100.00
44309;BME280;30022;55.846;37.340;2023-02-19T09:36:06;48826.69;;;-143.51;100.00
44309;BME280;30022;55.846;37.340;2023-02-19T09:38:32;48710.09;;;-143.51;100.00
44309;BME280;30022;55.846;37.340;2023-02-19T09:40:58;48642.91;;;-143.51;100.00
44309;BME280;30022;55.846;37.340;2023-02-19T09:43:30;48745.66;;;-143.51;100.00
44309;BME280;30022;55.846;37.340;2023-02-19T09:46:03;48658.72;;;-143.51;100.00
44309;BME280;30022;55.846;37.340;2023-02-19T09:48:32;48482.88;;;-143.51;100.00
44309;BME280;30022;55.846;37.340;2023-02-19T09:50:58;48439.41;;;-143.51;100.00
44309;BME280;30022;55.846;37.340;2023-02-19T09:53:25;48559.94;;;-143.51;100.00
44309;BME280;30022;55.846;37.340;2023-02-19T09:55:51;48575.75;;;-143.51;100.00
44309;BME280;30022;55.846;37.340;2023-02-19T10:00:43;48814.81;;;-143.51;100.00
44309;BME280;30022;55.846;37.340;2023-02-19T10:03:23;48820.75;;;-143.51;100.00
44309;BME280;30022;55.846;37.340;2023-02-19T10:05:52;48882.00;;;-143.51;100.00
44309;BME280;30022;55.846;37.340;2023-02-19T10:08:19;48783.22;;;-143.51;100.00
44309;BME280;30022;55.846;37.340;2023-02-19T10:10:45;48802.97;;;-143.51;100.00
44309;BME280;30022;55.846;37.340;2023-02-19T10:13:18;48704.16;;;-143.51;100.00
44309;BME280;30022;55.846;37.340;2023-02-19T10:15:51;48637.00;;;-143.51;100.00
44309;BME280;30022;55.846;37.340;2023-02-19T10:18:21;48615.25;;;-143.51;100.00
44309;BME280;30022;55.846;37.340;2023-02-19T10:20:48;48706.16;;;-143.51;100.00
44309;BME280;30022;55.846;37.340;2023-02-19T10:23:15;48889.91;;;-143.51;100.00
44309;BME280;30022;55.846;37.340;2023-02-19T10:25:52;49008.47;;;-143.51;100.00
44309;BME280;30022;55.846;37.340;2023-02-19T10:28:23;49144.81;;;-143.51;100.00
44309;BME280;30022;55.846;37.340;2023-02-19T10:30:51;49168.53;;;-143.51;100.00
44309;BME280;30022;55.846;37.340;2023-02-19T10:33:18;49344.41;;;-143.51;100.00
44309;BME280;30022;55.846;37.340;2023-02-19T10:36:03;49354.28;;;-143.51;100.00
44309;BME280;30022;55.846;37.340;2023-02-19T10:38:31;49538.09;;;-143.51;100.00
44309;BME280;30022;55.846;37.340;2023-02-19T10:40:59;49771.28;;;-143.51;100.00
44309;BME280;30022;55.846;37.340;2023-02-19T10:43:26;49451.13;;;-143.51;100.00
44309;BME280;30022;55.846;37.340;2023-02-19T10:45:57;49285.13;;;-143.51;100.00
44309;BME280;30022;55.846;37.340;2023-02-19T10:48:27;49356.28;;;-143.51;100.00
44309;BME280;30022;55.846;37.340;2023-02-19T10:50:55;49097.41;;;-143.51;100.00
44309;BME280;30022;55.846;37.340;2023-02-19T10:53:35;48947.22;;;-143.51;100.00
44309;BME280;30022;55.846;37.340;2023-02-19T10:56:09;48844.47;;;-143.51;100.00
44309;BME280;30022;55.846;37.340;2023-02-19T10:58:37;48883.97;;;-143.51;100.00
44309;BME280;30022;55.846;37.340;2023-02-19T11:01:17;49225.84;;;-143.51;100.00
44309;BME280;30022;55.846;37.340;2023-02-19T11:03:45;49326.63;;;-143.51;100.00
44309;BME280;30022;55.846;37.340;2023-02-19T11:06:11;49138.88;;;-143.51;100.00
44309;BME280;30022;55.846;37.340;2023-02-19T11:08:57;48933.38;;;-143.51;100.00
44309;BME280;30022;55.846;37.340;2023-02-19T11:13:49;49198.19;;;-143.51;100.00
44309;BME280;30022;55.846;37.340;2023-02-19T11:16:15;49285.13;;;-143.51;100.00
44309;BME280;30022;55.846;37.340;2023-02-19T11:18:41;49237.69;;;-143.51;100.00
44309;BME280;30022;55.846;37.340;2023-02-19T11:21:17;49042.06;;;-143.51;100.00
44309;BME280;30022;55.846;37.340;2023-02-19T11:23:47;48773.31;;;-143.51;100.00
44309;BME280;30022;55.846;37.340;2023-02-19T11:26:19;48719.97;;;-143.51;100.00
44309;BME280;30022;55.846;37.340;2023-02-19T11:28:45;48882.00;;;-143.51;100.00
44309;BME280;30022;55.846;37.340;2023-02-19T11:31:22;48959.06;;;-143.51;100.00
44309;BME280;30022;55.846;37.340;2023-02-19T11:33:53;49101.34;;;-143.51;100.00
44309;BME280;30022;55.846;37.340;2023-02-19T11:38:48;49014.41;;;-143.51;100.00
44309;BME280;30022;55.846;37.340;2023-02-19T11:41:23;48621.19;;;-143.51;100.00
44309;BME280;30022;55.846;37.340;2023-02-19T11:43:56;48970.94;;;-143.51;100.00
44309;BME280;30022;55.846;37.340;2023-02-19T11:46:31;49318.72;;;-143.51;100.00
44309;BME280;30022;55.846;37.340;2023-02-19T11:56:42;49099.38;;;-143.51;100.00
44309;BME280;30022;55.846;37.340;2023-02-19T12:09:25;49241.66;;;-143.51;100.00
44309;BME280;30022;55.846;37.340;2023-02-19T12:28:07;49182.38;;;-143.51;100.00
44309;BME280;30022;55.846;37.340;2023-02-19T12:45:57;49340.47;;;-143.51;100.00
44309;BME280;30022;55.846;37.340;2023-02-19T12:48:30;49352.31;;;-143.51;100.00
44309;BME280;30022;55.846;37.340;2023-02-19T12:51:21;49403.69;;;-143.51;100.00
44309;BME280;30022;55.846;37.340;2023-02-19T12:53:51;49591.44;;;-143.51;100.00
44309;BME280;30022;55.846;37.340;2023-02-19T12:56:28;49674.44;;;-143.51;100.00
44309;BME280;30022;55.846;37.340;2023-02-19T12:58:57;48913.63;;;-143.51;100.00
44309;BME280;30022;55.846;37.340;2023-02-19T13:01:30;49093.44;;;-143.51;100.00
44309;BME280;30022;55.846;37.340;2023-02-19T13:04:13;49121.09;;;-143.51;100.00
44309;BME280;30022;55.846;37.340;2023-02-19T13:06:41;49237.69;;;-143.51;100.00
44309;BME280;30022;55.846;37.340;2023-02-19T13:12:10;48826.69;;;-143.51;100.00
44309;BME280;30022;55.846;37.340;2023-02-19T13:17:17;49170.50;;;-143.51;100.00
44309;BME280;30022;55.846;37.340;2023-02-19T13:19:45;49401.72;;;-143.51;100.00
44309;BME280;30022;55.846;37.340;2023-02-19T13:25:22;49113.19;;;-143.51;100.00
44309;BME280;30022;55.846;37.340;2023-02-19T13:28:04;48998.59;;;-143.51;100.00
44309;BME280;30022;55.846;37.340;2023-02-19T13:31:22;48947.22;;;-143.51;100.00
44309;BME280;30022;55.846;37.340;2023-02-19T13:36:32;48911.66;;;-143.51;100.00
44309;BME280;30022;55.846;37.340;2023-02-19T13:38:59;49036.13;;;-143.51;100.00
44309;BME280;30022;55.846;37.340;2023-02-19T13:41:30;49208.06;;;-143.51;100.00
44309;BME280;30022;55.846;37.340;2023-02-19T13:43:58;49063.81;;;-143.51;100.00
44309;BME280;30022;55.846;37.340;2023-02-19T13:46:24;49223.88;;;-143.51;100.00
44309;BME280;30022;55.846;37.340;2023-02-19T13:49:42;49370.09;;;-143.51;100.00
44309;BME280;30022;55.846;37.340;2023-02-19T13:51:46;49134.94;;;-143.51;100.00
44309;BME280;30022;55.846;37.340;2023-02-19T13:54:30;49298.97;;;-143.51;100.00
44309;BME280;30022;55.846;37.340;2023-02-19T13:59:43;49217.94;;;-143.51;100.00
44309;BME280;30022;55.846;37.340;2023-02-19T14:04:50;49233.75;;;-143.51;100.00
44309;BME280;30022;55.846;37.340;2023-02-19T14:14:38;48735.78;;;-143.51;100.00
44309;BME280;30022;55.846;37.340;2023-02-19T14:25:03;48939.31;;;-143.51;100.00
44309;BME280;30022;55.846;37.340;2023-02-19T14:27:32;48885.97;;;-143.51;100.00
44309;BME280;30022;55.846;37.340;2023-02-19T14:29:58;48747.66;;;-143.51;100.00